Time;durP1;ratioP1;P1;durP2;ratioP2;P2;SDS_P1;SDS_P2;PMS_P1;PMS_P2;Temp;Humidity;BMP_temperature;BMP_pressure;BME280_temperature;BME280_humidity;BME280_pressure;Samples;Min_cycle;Max_cycle;Signal;HPM_P1;HPM_P2
2021/11/10 00:02:17;;;;;;;33.80;19.03;;;5.60;98.20;;;;;;4904734;29;20045;-78
2021/11/10 00:04:43;;;;;;;33.40;17.53;;;5.60;98.30;;;;;;4906691;29;20047;-79
2021/11/10 00:07:09;;;;;;;31.47;18.40;;;5.60;98.20;;;;;;4904545;29;20052;-78
2021/11/10 00:09:35;;;;;;;35.10;16.97;;;5.50;98.10;;;;;;4888209;29;20049;-80
2021/11/10 00:12:00;;;;;;;27.87;17.30;;;5.50;98.20;;;;;;4888973;29;20064;-78
2021/11/10 00:14:26;;;;;;;29.63;16.73;;;5.40;98.10;;;;;;4903621;29;20463;-78
2021/11/10 00:16:54;;;;;;;27.80;15.90;;;5.40;98.10;;;;;;4904126;29;20088;-79
2021/11/10 00:19:21;;;;;;;28.30;17.17;;;5.40;98.30;;;;;;4888484;29;20033;-78
2021/11/10 00:21:46;;;;;;;24.60;14.77;;;5.40;98.40;;;;;;4902502;29;20044;-80
2021/11/10 00:24:13;;;;;;;25.03;16.40;;;5.30;98.30;;;;;;4903069;29;20047;-77
2021/11/10 00:26:38;;;;;;;30.27;17.07;;;5.30;98.30;;;;;;4885090;29;20525;-79
2021/11/10 00:29:04;;;;;;;31.23;18.37;;;5.40;98.50;;;;;;4884575;29;20060;-79
2021/11/10 00:31:30;;;;;;;28.73;17.90;;;5.40;98.40;;;;;;4901364;29;20394;-78
2021/11/10 00:33:56;;;;;;;25.07;16.20;;;5.40;98.60;;;;;;4886047;29;20547;-78
2021/11/10 00:36:22;;;;;;;26.17;17.13;;;5.50;98.60;;;;;;4901075;29;20122;-78
2021/11/10 00:38:48;;;;;;;30.30;17.10;;;5.40;98.50;;;;;;4901278;29;20119;-78
2021/11/10 00:41:14;;;;;;;30.13;16.67;;;5.50;98.80;;;;;;4901860;29;20127;-79
2021/11/10 00:43:41;;;;;;;29.27;16.83;;;5.40;98.60;;;;;;4902311;29;20355;-79
2021/11/10 00:46:07;;;;;;;38.07;17.93;;;5.50;98.80;;;;;;4886552;29;20040;-79
2021/11/10 00:48:33;;;;;;;26.43;15.20;;;5.50;98.90;;;;;;4886458;29;20053;-79
2021/11/10 00:50:59;;;;;;;26.70;15.40;;;5.60;98.80;;;;;;4902803;29;20032;-78
2021/11/10 00:53:25;;;;;;;23.70;14.77;;;5.50;98.50;;;;;;4902710;29;20041;-78
2021/11/10 00:55:50;;;;;;;26.53;14.20;;;5.50;98.40;;;;;;4886794;29;20043;-78
2021/11/10 00:58:16;;;;;;;27.77;17.10;;;5.40;98.30;;;;;;4901636;29;20397;-79
2021/11/10 01:00:42;;;;;;;26.57;15.17;;;5.30;98.40;;;;;;4900688;29;20044;-79
2021/11/10 01:03:08;;;;;;;25.57;14.50;;;5.40;98.60;;;;;;4900833;29;20067;-78
2021/11/10 01:05:35;;;;;;;28.37;14.77;;;5.40;98.50;;;;;;4902579;29;20069;-78
2021/11/10 01:08:03;;;;;;;23.90;14.43;;;5.30;98.70;;;;;;4902288;29;20040;-78
2021/11/10 01:10:29;;;;;;;22.70;13.33;;;5.30;98.50;;;;;;4904520;29;20107;-78
2021/11/10 01:12:57;;;;;;;20.13;12.73;;;5.20;98.50;;;;;;4905947;29;20033;-76
2021/11/10 01:15:23;;;;;;;24.23;13.63;;;5.10;98.40;;;;;;4907334;29;20044;-79
2021/11/10 01:17:50;;;;;;;29.10;14.87;;;5.10;98.50;;;;;;4905864;29;20037;-79
2021/11/10 01:20:16;;;;;;;25.27;14.10;;;5.00;98.60;;;;;;4906779;29;20445;-78
2021/11/10 01:22:42;;;;;;;24.77;14.37;;;5.00;98.60;;;;;;4907043;29;20044;-81
2021/11/10 01:25:09;;;;;;;29.10;15.97;;;5.00;98.60;;;;;;4890374;29;20467;-78
2021/11/10 01:27:36;;;;;;;27.17;15.23;;;5.00;98.70;;;;;;4908062;29;20045;-79
2021/11/10 01:30:03;;;;;;;26.23;14.77;;;5.10;98.90;;;;;;4906281;29;20093;-78
2021/11/10 01:32:28;;;;;;;26.87;14.90;;;5.10;98.90;;;;;;4906032;29;20042;-77
2021/11/10 01:34:54;;;;;;;25.20;14.87;;;5.10;98.80;;;;;;4889451;29;20111;-76
2021/11/10 01:37:19;;;;;;;28.70;14.53;;;5.10;98.90;;;;;;4903614;29;20091;-79
2021/11/10 01:39:45;;;;;;;25.07;13.50;;;5.10;98.90;;;;;;4903726;29;20047;-79
2021/11/10 01:42:11;;;;;;;27.27;14.90;;;5.00;98.70;;;;;;4903678;29;20040;-78
2021/11/10 01:44:39;;;;;;;29.70;14.87;;;5.00;98.80;;;;;;4903861;29;20037;-78
2021/11/10 01:47:08;;;;;;;28.50;15.17;;;5.00;98.80;;;;;;4904303;29;20046;-77
2021/11/10 01:49:37;;;;;;;30.17;15.57;;;5.00;98.80;;;;;;4906081;29;20033;-77
2021/11/10 01:52:03;;;;;;;26.97;13.93;;;4.90;98.90;;;;;;4904607;29;20033;-79
2021/11/10 01:54:30;;;;;;;25.87;15.00;;;4.90;98.90;;;;;;4889048;29;20057;-79
2021/11/10 01:56:57;;;;;;;29.03;14.63;;;4.90;98.90;;;;;;4903970;29;20143;-77
2021/11/10 01:59:34;;;;;;;30.63;15.83;;;4.90;98.80;;;;;;4904893;29;20032;-79
2021/11/10 02:02:01;;;;;;;25.87;14.43;;;4.80;98.90;;;;;;4904918;29;20037;-78
2021/11/10 02:04:29;;;;;;;28.80;15.13;;;4.90;99.00;;;;;;4905993;29;20040;-78
2021/11/10 02:06:55;;;;;;;26.70;15.23;;;4.90;99.10;;;;;;4902793;29;20131;-78
2021/11/10 02:09:23;;;;;;;25.43;15.07;;;4.90;99.30;;;;;;4902616;29;20063;-78
2021/11/10 02:11:49;;;;;;;25.30;14.80;;;5.00;99.30;;;;;;4902302;29;20041;-79
2021/11/10 02:14:24;;;;;;;29.07;15.37;;;5.00;99.10;;;;;;4886502;29;20036;-77
2021/11/10 02:16:51;;;;;;;24.80;14.57;;;5.00;99.10;;;;;;4904741;29;20036;-81
2021/11/10 02:19:19;;;;;;;22.60;14.50;;;5.00;99.30;;;;;;4905176;29;20037;-78
2021/11/10 02:21:49;;;;;;;27.53;15.37;;;5.00;99.30;;;;;;4904448;29;20043;-77
2021/11/10 02:24:16;;;;;;;24.13;14.90;;;5.00;99.20;;;;;;4904638;29;20079;-76
2021/11/10 02:26:43;;;;;;;25.90;14.67;;;4.90;99.20;;;;;;4903681;29;20036;-77
2021/11/10 02:29:17;;;;;;;25.40;14.57;;;5.00;99.40;;;;;;4906687;29;20032;-80
2021/11/10 02:31:44;;;;;;;24.37;14.03;;;5.00;99.10;;;;;;4906067;29;20044;-78
2021/11/10 02:34:10;;;;;;;23.97;13.83;;;4.90;99.10;;;;;;4893133;29;20052;-77
2021/11/10 02:36:35;;;;;;;22.67;15.20;;;4.90;99.30;;;;;;4909029;29;20040;-78
2021/11/10 02:39:05;;;;;;;23.73;13.90;;;5.00;99.20;;;;;;4904552;29;20065;-78
2021/11/10 02:41:31;;;;;;;24.97;14.47;;;4.90;99.00;;;;;;4905378;29;20040;-78
2021/11/10 02:43:57;;;;;;;21.63;14.30;;;4.80;98.90;;;;;;4905100;29;20138;-78
2021/11/10 02:46:23;;;;;;;24.63;13.57;;;4.70;99.00;;;;;;4889195;29;20041;-78
2021/11/10 02:48:49;;;;;;;25.67;14.20;;;4.70;99.00;;;;;;4904604;29;20047;-78
2021/11/10 02:51:15;;;;;;;22.10;14.37;;;4.70;99.10;;;;;;4887515;29;20386;-79
2021/11/10 02:53:41;;;;;;;24.67;13.53;;;4.70;99.20;;;;;;4903027;29;20126;-76
2021/11/10 02:56:08;;;;;;;28.57;15.30;;;4.60;99.00;;;;;;4903935;29;20037;-80
2021/11/10 02:58:35;;;;;;;24.10;14.00;;;4.60;98.90;;;;;;4903616;29;20044;-77
2021/11/10 03:01:03;;;;;;;27.50;15.27;;;4.40;99.00;;;;;;4905181;29;20063;-78
2021/11/10 03:03:30;;;;;;;29.07;15.80;;;4.40;99.00;;;;;;4903258;29;20033;-77
2021/11/10 03:05:56;;;;;;;26.20;14.03;;;4.30;99.00;;;;;;4902771;29;20119;-79
2021/11/10 03:08:23;;;;;;;28.60;15.50;;;4.20;99.00;;;;;;4887023;29;20075;-78
2021/11/10 03:10:51;;;;;;;34.67;16.97;;;4.20;99.20;;;;;;4903424;29;20048;-79
2021/11/10 03:13:17;;;;;;;29.47;15.60;;;4.20;99.00;;;;;;4904031;29;20055;-76
2021/11/10 03:15:45;;;;;;;30.43;16.87;;;4.10;99.10;;;;;;4904334;29;20131;-77
2021/11/10 03:18:11;;;;;;;28.63;14.87;;;4.10;99.30;;;;;;4903569;29;20045;-77
2021/11/10 03:20:37;;;;;;;28.27;16.37;;;4.20;99.30;;;;;;4903367;29;20064;-77
2021/11/10 03:23:04;;;;;;;25.63;14.87;;;4.30;99.50;;;;;;4902714;29;20037;-77
2021/11/10 03:25:30;;;;;;;23.73;15.57;;;4.50;99.70;;;;;;4885912;29;20065;-77
2021/11/10 03:27:56;;;;;;;25.83;14.53;;;4.60;99.80;;;;;;4903242;29;20040;-79
2021/11/10 03:30:23;;;;;;;26.20;13.33;;;4.80;99.90;;;;;;4905677;29;20052;-78
2021/11/10 03:32:51;;;;;;;23.50;14.63;;;4.80;99.80;;;;;;4890929;29;20123;-78
2021/11/10 03:35:17;;;;;;;26.63;13.97;;;4.90;99.80;;;;;;4909488;29;20075;-76
2021/11/10 03:37:43;;;;;;;21.33;13.10;;;4.80;99.50;;;;;;4894240;29;20085;-78
2021/11/10 03:40:10;;;;;;;25.87;15.10;;;4.70;99.30;;;;;;4909235;29;20053;-77
2021/11/10 03:42:35;;;;;;;25.63;14.43;;;4.60;99.20;;;;;;4909360;29;20061;-77
2021/11/10 03:45:02;;;;;;;24.73;13.90;;;4.50;99.30;;;;;;4912036;29;20036;-77
2021/11/10 03:47:28;;;;;;;27.17;14.10;;;4.50;99.30;;;;;;4909828;29;20055;-77
2021/11/10 03:49:53;;;;;;;30.20;15.63;;;4.50;99.20;;;;;;4910925;29;20409;-78
2021/11/10 03:52:20;;;;;;;27.83;14.90;;;4.40;99.30;;;;;;4894358;29;20033;-77
2021/11/10 03:54:47;;;;;;;26.00;14.90;;;4.30;99.10;;;;;;4893961;29;20041;-76
2021/11/10 03:57:13;;;;;;;25.63;15.03;;;4.30;99.10;;;;;;4909874;29;20100;-76
2021/11/10 03:59:40;;;;;;;26.37;14.73;;;4.20;99.20;;;;;;4908499;29;20039;-77
2021/11/10 04:02:07;;;;;;;29.27;14.87;;;4.10;99.20;;;;;;4901175;29;20076;-77
2021/11/10 04:04:32;;;;;;;29.03;14.50;;;4.20;99.20;;;;;;4899500;29;20103;-77
2021/11/10 04:06:58;;;;;;;29.00;14.93;;;4.10;99.20;;;;;;4898879;29;20044;-75
2021/11/10 04:09:24;;;;;;;26.87;14.87;;;4.10;99.20;;;;;;4899406;29;20067;-79
2021/11/10 04:11:50;;;;;;;24.63;13.57;;;4.20;99.50;;;;;;4900628;29;20445;-78
2021/11/10 04:14:16;;;;;;;30.60;14.57;;;4.40;99.50;;;;;;4901325;29;20060;-80
2021/11/10 04:16:42;;;;;;;29.17;15.27;;;4.50;99.60;;;;;;4884995;29;20064;-78
2021/11/10 04:19:08;;;;;;;25.47;14.40;;;4.70;99.80;;;;;;4901075;29;20131;-77
2021/11/10 04:21:34;;;;;;;24.57;13.23;;;4.80;99.70;;;;;;4884953;29;20043;-76
2021/11/10 04:24:00;;;;;;;21.73;13.80;;;4.80;99.60;;;;;;4902074;29;20075;-77
2021/11/10 04:26:29;;;;;;;22.77;12.70;;;4.90;99.70;;;;;;4901797;29;20131;-78
2021/11/10 04:28:56;;;;;;;19.23;11.97;;;5.00;99.70;;;;;;4902245;29;20187;-76
2021/11/10 04:31:22;;;;;;;20.23;12.00;;;5.10;99.60;;;;;;4900442;29;20105;-77
2021/11/10 04:33:49;;;;;;;23.07;12.43;;;5.10;99.60;;;;;;4901096;29;20039;-78
2021/11/10 04:36:16;;;;;;;20.63;12.10;;;5.20;99.60;;;;;;4899308;29;20029;-78
2021/11/10 04:38:42;;;;;;;18.40;11.60;;;5.20;99.50;;;;;;4901240;29;20115;-77
2021/11/10 04:41:08;;;;;;;23.30;12.80;;;5.20;99.40;;;;;;4901867;29;20037;-78
2021/11/10 04:43:34;;;;;;;22.67;12.83;;;5.20;99.20;;;;;;4900941;29;20092;-76
2021/11/10 04:48:44;;;;;;;22.80;12.57;;;5.10;99.20;;;;;;4898735;29;20044;-77
2021/11/10 04:51:11;;;;;;;20.57;11.80;;;5.10;99.30;;;;;;4898825;29;20050;-78
2021/11/10 04:53:39;;;;;;;21.20;11.93;;;5.10;99.20;;;;;;4898885;29;20041;-79
2021/11/10 04:56:05;;;;;;;21.93;11.83;;;5.10;99.20;;;;;;4900027;29;20128;-76
2021/11/10 04:58:31;;;;;;;20.57;12.27;;;5.10;99.20;;;;;;4900079;29;20045;-76
2021/11/10 05:00:58;;;;;;;24.07;12.63;;;5.10;99.20;;;;;;4899632;29;20033;-77
2021/11/10 05:03:25;;;;;;;26.60;13.57;;;5.00;98.90;;;;;;4899513;29;20043;-77
2021/11/10 05:05:51;;;;;;;22.90;12.33;;;5.00;98.90;;;;;;4899748;29;20037;-77
2021/11/10 05:08:17;;;;;;;24.37;12.50;;;5.00;99.10;;;;;;4900183;29;20052;-76
2021/11/10 05:10:42;;;;;;;19.33;11.90;;;5.00;99.30;;;;;;4898856;29;20064;-76
2021/11/10 05:13:09;;;;;;;23.10;12.13;;;5.10;99.30;;;;;;4899262;29;20037;-78
2021/11/10 05:15:35;;;;;;;20.93;11.93;;;5.10;99.30;;;;;;4898336;29;20037;-79
2021/11/10 05:18:00;;;;;;;24.83;11.17;;;5.20;99.30;;;;;;4898755;29;20036;-77
2021/11/10 05:20:26;;;;;;;25.57;11.50;;;5.30;99.30;;;;;;4882295;29;20041;-75
2021/11/10 05:22:52;;;;;;;21.50;11.93;;;5.30;99.10;;;;;;4897923;29;20127;-76
2021/11/10 05:25:18;;;;;;;21.50;11.43;;;5.30;99.00;;;;;;4897995;29;20044;-77
2021/11/10 05:27:44;;;;;;;19.07;11.43;;;5.30;98.90;;;;;;4898240;29;20048;-78
2021/11/10 05:30:11;;;;;;;20.70;12.03;;;5.20;98.80;;;;;;4897794;29;20181;-78
2021/11/10 05:32:37;;;;;;;20.37;11.60;;;5.20;99.00;;;;;;4882549;29;20470;-78
2021/11/10 05:35:03;;;;;;;19.77;12.03;;;5.30;99.20;;;;;;4897563;29;20077;-77
2021/11/10 05:37:30;;;;;;;21.20;11.57;;;5.40;99.00;;;;;;4900172;29;20076;-78
2021/11/10 05:39:56;;;;;;;18.70;10.80;;;5.40;98.90;;;;;;4901492;29;20056;-77
2021/11/10 05:42:25;;;;;;;18.57;11.40;;;5.30;98.80;;;;;;4898687;29;20478;-77
2021/11/10 05:44:51;;;;;;;19.77;11.20;;;5.40;98.90;;;;;;4898707;29;20529;-76
2021/11/10 05:47:17;;;;;;;22.63;11.30;;;5.40;98.80;;;;;;4899498;29;20071;-78
2021/11/10 05:49:44;;;;;;;16.53;10.70;;;5.40;98.70;;;;;;4883490;29;20481;-77
2021/11/10 05:52:10;;;;;;;16.67;10.33;;;5.30;98.50;;;;;;4900189;29;20072;-76
2021/11/10 05:54:38;;;;;;;18.17;10.97;;;5.30;98.60;;;;;;4898418;29;20044;-76
2021/11/10 05:57:06;;;;;;;19.97;10.43;;;5.20;98.40;;;;;;4902182;29;20033;-78
2021/11/10 05:59:33;;;;;;;19.30;10.77;;;5.20;98.60;;;;;;4902481;29;20028;-76
2021/11/10 06:02:00;;;;;;;19.10;10.93;;;5.30;98.70;;;;;;4886316;29;20048;-78
2021/11/10 06:04:26;;;;;;;22.43;13.27;;;5.30;98.60;;;;;;4886246;29;20132;-76
2021/11/10 06:06:53;;;;;;;19.33;12.23;;;5.30;98.40;;;;;;4902656;29;20037;-79
2021/11/10 06:09:19;;;;;;;20.00;11.17;;;5.30;98.50;;;;;;4901034;29;20048;-77
2021/11/10 06:11:45;;;;;;;19.83;10.40;;;5.30;98.20;;;;;;4901328;29;20371;-77
2021/11/10 06:14:12;;;;;;;20.57;10.13;;;5.20;98.10;;;;;;4901928;29;20041;-76
2021/11/10 06:16:38;;;;;;;17.60;10.23;;;5.20;98.20;;;;;;4904035;29;20482;-78
2021/11/10 06:19:04;;;;;;;16.47;10.37;;;5.10;98.30;;;;;;4885657;29;20074;-77
2021/11/10 06:21:29;;;;;;;17.10;10.10;;;5.10;98.40;;;;;;4900859;29;20045;-77
2021/11/10 06:23:56;;;;;;;15.37;9.77;;;5.20;98.50;;;;;;4903952;29;20112;-78
2021/11/10 06:26:22;;;;;;;17.83;9.37;;;5.30;98.50;;;;;;4902121;29;20477;-79
2021/11/10 06:28:48;;;;;;;15.23;9.50;;;5.30;98.30;;;;;;4901579;29;20048;-78
2021/11/10 06:31:14;;;;;;;15.93;9.37;;;5.30;98.30;;;;;;4917676;29;20041;-78
2021/11/10 06:33:42;;;;;;;16.63;9.87;;;5.30;98.50;;;;;;4901630;29;20460;-77
2021/11/10 06:36:07;;;;;;;15.60;9.50;;;5.30;98.50;;;;;;4934200;29;20076;-78
2021/11/10 06:38:34;;;;;;;15.17;9.77;;;5.40;98.50;;;;;;4902785;29;20059;-79
2021/11/10 06:41:04;;;;;;;17.53;10.00;;;5.30;98.20;;;;;;4934753;29;20044;-77
2021/11/10 06:43:29;;;;;;;17.50;9.97;;;5.30;98.30;;;;;;4900556;29;20088;-79
2021/11/10 06:45:56;;;;;;;15.27;9.80;;;5.40;98.10;;;;;;4917375;29;20045;-81
2021/11/10 06:48:22;;;;;;;17.17;9.43;;;5.40;98.10;;;;;;4901137;29;20052;-82
2021/11/10 06:50:47;;;;;;;15.80;9.73;;;5.40;98.10;;;;;;4915299;29;20036;-78
2021/11/10 06:53:14;;;;;;;16.67;9.40;;;5.40;98.00;;;;;;4916378;29;20489;-78
2021/11/10 06:55:40;;;;;;;14.27;9.23;;;5.30;97.30;;;;;;4947683;29;20043;-79
2021/11/10 06:58:06;;;;;;;15.73;9.67;;;5.20;97.50;;;;;;4919624;29;20091;-79
2021/11/10 07:00:32;;;;;;;15.83;9.67;;;5.20;97.90;;;;;;4919504;29;20051;-79
2021/11/10 07:02:58;;;;;;;16.27;9.70;;;5.30;97.80;;;;;;4920656;29;20128;-81
2021/11/10 07:05:24;;;;;;;19.57;10.10;;;5.30;97.90;;;;;;4900690;29;20037;-80
2021/11/10 07:07:50;;;;;;;15.33;9.07;;;5.30;97.90;;;;;;4902771;29;20505;-80
2021/11/10 07:10:15;;;;;;;20.03;11.20;;;5.40;98.20;;;;;;4901028;29;20501;-80
2021/11/10 07:12:42;;;;;;;20.17;11.50;;;5.60;98.10;;;;;;4886733;29;20053;-80
2021/11/10 07:15:10;;;;;;;27.30;16.07;;;5.70;98.00;;;;;;4913399;29;20045;-81
2021/11/10 07:17:36;;;;;;;27.30;15.10;;;5.60;97.60;;;;;;4910465;29;20036;-80
2021/11/10 07:20:03;;;;;;;28.30;16.57;;;5.70;97.40;;;;;;4899896;29;20409;-79
2021/11/10 07:22:29;;;;;;;28.43;16.90;;;5.80;97.40;;;;;;4904094;29;20059;-79
2021/11/10 07:24:55;;;;;;;27.17;14.60;;;5.80;97.20;;;;;;4902186;29;20056;-79
2021/11/10 07:27:21;;;;;;;28.97;18.20;;;5.70;96.10;;;;;;4885004;29;20041;-79
2021/11/10 07:29:46;;;;;;;36.33;22.80;;;5.40;95.80;;;;;;4884763;29;20056;-80
2021/11/10 07:32:12;;;;;;;37.03;21.93;;;5.30;97.10;;;;;;4899672;29;20544;-80
2021/11/10 07:34:38;;;;;;;38.93;20.83;;;5.50;97.40;;;;;;4886491;29;20033;-80
2021/11/10 07:37:08;;;;;;;38.30;22.70;;;5.50;97.10;;;;;;4902052;29;20108;-81
2021/11/10 07:39:37;;;;;;;40.13;21.90;;;5.60;97.10;;;;;;4902876;29;20096;-81
2021/11/10 07:42:11;;;;;;;36.83;20.50;;;5.60;97.10;;;;;;4910828;29;20036;-83
2021/11/10 07:44:39;;;;;;;30.57;19.03;;;5.70;96.60;;;;;;4911483;29;20072;-79
2021/11/10 07:47:13;;;;;;;28.37;18.70;;;5.60;96.30;;;;;;4900815;29;20044;-81
2021/11/10 07:49:39;;;;;;;20.50;12.73;;;5.60;96.30;;;;;;4903312;29;20048;-81
2021/11/10 07:52:05;;;;;;;31.47;17.17;;;5.50;95.30;;;;;;4889214;29;20036;-80
2021/11/10 07:54:31;;;;;;;36.27;20.37;;;5.30;95.40;;;;;;4904602;29;20032;-82
2021/11/10 07:56:57;;;;;;;35.47;21.83;;;5.40;96.60;;;;;;4901946;29;20044;-78
2021/11/10 07:59:22;;;;;;;29.00;17.70;;;5.60;96.70;;;;;;4901008;29;20048;-81
2021/11/10 08:01:48;;;;;;;28.13;15.77;;;5.80;96.70;;;;;;4900123;29;20366;-81
2021/11/10 08:04:14;;;;;;;21.20;14.20;;;6.00;95.80;;;;;;4885291;29;20048;-80
2021/11/10 08:06:39;;;;;;;23.80;15.07;;;6.10;94.50;;;;;;4899852;29;20032;-80
2021/11/10 08:09:05;;;;;;;25.90;16.03;;;6.60;95.10;;;;;;4884251;29;20053;-78
2021/11/10 08:11:31;;;;;;;23.60;14.63;;;7.20;94.00;;;;;;4885017;29;20048;-79
2021/11/10 08:13:57;;;;;;;23.50;13.57;;;7.80;92.80;;;;;;4883813;29;20037;-81
2021/11/10 08:16:24;;;;;;;21.60;11.80;;;8.30;90.50;;;;;;4900071;29;20088;-82
2021/11/10 08:18:50;;;;;;;24.00;12.13;;;8.60;85.70;;;;;;4900491;29;20044;-80
2021/11/10 08:21:16;;;;;;;19.47;11.80;;;8.80;85.70;;;;;;4884539;29;20040;-80
2021/11/10 08:23:42;;;;;;;21.30;11.47;;;9.10;82.40;;;;;;4899083;29;20044;-80
2021/11/10 08:26:08;;;;;;;16.37;10.77;;;9.30;81.60;;;;;;4885115;29;20610;-80
2021/11/10 08:28:34;;;;;;;19.27;11.87;;;9.50;81.10;;;;;;4898138;29;20049;-79
2021/11/10 08:30:59;;;;;;;18.37;12.83;;;9.50;79.90;;;;;;4883552;29;20052;-80
2021/11/10 08:33:26;;;;;;;18.73;11.70;;;9.60;80.70;;;;;;4898741;29;20489;-80
2021/11/10 08:35:52;;;;;;;20.27;10.97;;;9.80;80.60;;;;;;4882542;29;20050;-80
2021/11/10 08:38:18;;;;;;;17.83;11.43;;;9.90;80.30;;;;;;4898901;29;20036;-80
2021/11/10 08:40:44;;;;;;;20.37;11.60;;;9.90;80.10;;;;;;4898610;29;20458;-80
2021/11/10 08:43:12;;;;;;;19.87;11.67;;;9.90;80.20;;;;;;4899417;29;20092;-82
2021/11/10 08:45:40;;;;;;;22.70;11.30;;;9.80;79.70;;;;;;4899813;29;20063;-79
2021/11/10 08:48:06;;;;;;;16.47;11.30;;;9.70;79.60;;;;;;4903791;29;20044;-79
2021/11/10 08:50:35;;;;;;;18.23;11.40;;;9.60;79.60;;;;;;4899056;29;20108;-81
2021/11/10 08:53:02;;;;;;;19.27;11.20;;;9.40;79.70;;;;;;4898015;29;20033;-81
2021/11/10 08:55:28;;;;;;;22.17;11.47;;;9.40;81.80;;;;;;4899210;29;20096;-80
2021/11/10 08:57:55;;;;;;;18.63;10.90;;;9.40;81.00;;;;;;4898110;29;20405;-80
2021/11/10 09:00:24;;;;;;;18.07;11.70;;;9.20;80.40;;;;;;4898385;29;20069;-80
2021/11/10 09:02:50;;;;;;;19.90;10.73;;;9.00;80.90;;;;;;4898207;29;20032;-81
2021/11/10 09:05:16;;;;;;;14.57;10.03;;;8.80;80.70;;;;;;4898710;29;20037;-79
2021/11/10 09:07:42;;;;;;;16.60;10.30;;;8.40;80.40;;;;;;4884339;29;20088;-80
2021/11/10 09:10:12;;;;;;;17.77;11.10;;;8.00;81.30;;;;;;4899472;29;20048;-82
2021/11/10 09:12:39;;;;;;;18.57;11.83;;;7.70;83.40;;;;;;4899943;29;20063;-78
2021/11/10 09:15:07;;;;;;;16.70;11.40;;;7.70;83.60;;;;;;4902730;29;20537;-81
2021/11/10 09:17:36;;;;;;;16.93;11.57;;;7.70;85.80;;;;;;4902705;29;20096;-83
2021/11/10 09:20:08;;;;;;;18.13;11.03;;;7.80;87.40;;;;;;4903094;29;20084;-81
2021/11/10 09:22:35;;;;;;;17.27;11.38;;;8.00;87.90;;;;;;4904734;29;20052;-82
2021/11/10 09:25:01;;;;;;;15.20;11.17;;;8.10;86.70;;;;;;4904608;29;20185;-82
2021/11/10 09:27:26;;;;;;;16.40;11.87;;;8.10;86.30;;;;;;4907622;29;20069;-81
2021/11/10 09:29:53;;;;;;;18.93;11.03;;;8.20;86.20;;;;;;4901790;29;20068;-81
2021/11/10 09:32:19;;;;;;;16.40;10.87;;;8.20;86.80;;;;;;4888938;29;20044;-83
2021/11/10 09:34:45;;;;;;;18.87;11.27;;;8.20;85.00;;;;;;4909562;29;20027;-85
2021/11/10 09:37:11;;;;;;;21.63;11.57;;;8.30;85.10;;;;;;4914938;29;20029;-82
2021/11/10 09:39:37;;;;;;;17.60;11.10;;;8.20;84.20;;;;;;4909218;29;20473;-85
2021/11/10 09:42:03;;;;;;;16.50;10.63;;;8.20;85.50;;;;;;4892018;29;20051;-84
2021/11/10 09:44:29;;;;;;;18.40;10.23;;;8.40;85.20;;;;;;4906181;29;20040;-84
2021/11/10 09:46:56;;;;;;;18.23;9.93;;;8.50;83.80;;;;;;4890695;29;20469;-83
2021/11/10 09:49:22;;;;;;;16.33;10.00;;;8.40;82.10;;;;;;4906776;29;20036;-83
2021/11/10 09:51:49;;;;;;;16.90;10.63;;;8.30;82.30;;;;;;4907518;29;20096;-83
2021/11/10 09:54:16;;;;;;;17.60;10.60;;;8.30;82.40;;;;;;4907164;29;20029;-83
2021/11/10 09:56:44;;;;;;;17.63;11.43;;;8.10;82.00;;;;;;4908599;29;20052;-79
2021/11/10 09:59:11;;;;;;;15.20;10.43;;;8.00;82.90;;;;;;4909442;29;20045;-82
2021/11/10 10:01:40;;;;;;;18.10;11.17;;;8.00;84.10;;;;;;4908299;29;20035;-85
2021/11/10 10:04:08;;;;;;;16.90;11.00;;;8.20;84.20;;;;;;4908542;29;20045;-82
2021/11/10 10:06:35;;;;;;;17.97;10.57;;;8.40;83.90;;;;;;4911334;29;20071;-83
2021/11/10 10:09:02;;;;;;;16.37;10.70;;;8.70;82.10;;;;;;4923604;29;20032;-87
2021/11/10 10:11:28;;;;;;;18.53;11.33;;;8.90;82.30;;;;;;4903890;29;20037;-85
2021/11/10 10:13:55;;;;;;;16.23;10.67;;;9.10;80.80;;;;;;4905749;29;20043;-84
2021/11/10 10:16:24;;;;;;;22.63;11.30;;;9.10;80.70;;;;;;4909808;29;20120;-83
2021/11/10 10:18:51;;;;;;;18.03;11.67;;;9.10;80.20;;;;;;4909333;29;20099;-84
2021/11/10 10:21:23;;;;;;;20.13;11.27;;;9.00;81.50;;;;;;4885500;29;20083;-84
2021/11/10 10:23:50;;;;;;;21.08;11.35;;;9.30;82.10;;;;;;4900886;29;20081;-86
2021/11/10 10:26:20;;;;;;;21.53;11.37;;;9.50;79.50;;;;;;4901517;29;20081;-83
2021/11/10 10:28:55;;;;;;;15.77;10.93;;;9.80;80.40;;;;;;4900782;29;20045;-82
2021/11/10 10:31:27;;;;;;;19.73;10.80;;;10.20;79.90;;;;;;4900731;29;20045;-84
2021/11/10 10:33:59;;;;;;;16.53;10.63;;;10.50;79.00;;;;;;4900497;29;20049;-81
2021/11/10 10:36:29;;;;;;;15.57;10.77;;;10.60;76.80;;;;;;4900668;29;20036;-83
2021/11/10 10:39:07;;;;;;;16.07;10.77;;;10.30;75.80;;;;;;4902499;29;20041;-83
2021/11/10 10:41:35;;;;;;;18.77;11.47;;;10.10;76.70;;;;;;4902277;29;20123;-83
2021/11/10 10:44:14;;;;;;;20.90;11.37;;;9.80;77.40;;;;;;4900143;29;20056;-83
2021/11/10 10:46:42;;;;;;;15.40;10.63;;;9.50;77.70;;;;;;4900301;29;20040;-83
2021/11/10 10:49:18;;;;;;;16.93;11.50;;;9.20;79.20;;;;;;4885062;29;20076;-82
2021/11/10 10:51:54;;;;;;;21.73;10.67;;;9.20;80.10;;;;;;4908394;29;20056;-82
2021/11/10 10:54:28;;;;;;;15.83;10.97;;;9.10;80.70;;;;;;4909176;29;20060;-83
2021/11/10 10:56:59;;;;;;;17.40;10.93;;;9.20;79.90;;;;;;4906737;29;20095;-83
2021/11/10 10:59:25;;;;;;;23.10;11.20;;;9.10;80.90;;;;;;4904812;29;20029;-84
2021/11/10 11:01:53;;;;;;;17.57;9.87;;;9.00;80.20;;;;;;4903878;29;20032;-82
2021/11/10 11:04:22;;;;;;;18.60;10.50;;;9.10;81.70;;;;;;4902787;29;20040;-83
2021/11/10 11:06:58;;;;;;;15.87;9.73;;;9.30;82.10;;;;;;4903403;29;20033;-82
2021/11/10 11:09:28;;;;;;;16.50;9.53;;;9.50;82.00;;;;;;4903082;29;20525;-84
2021/11/10 11:12:13;;;;;;;13.77;9.67;;;9.60;81.20;;;;;;4902910;29;20549;-83
2021/11/10 11:15:07;;;;;;;18.50;10.13;;;9.70;80.60;;;;;;4904857;29;20028;-83
2021/11/10 11:17:45;;;;;;;16.27;9.93;;;9.70;79.80;;;;;;4904864;29;20040;-83
2021/11/10 11:20:14;;;;;;;12.47;8.53;;;9.70;80.30;;;;;;4904191;29;20450;-84
2021/11/10 11:22:46;;;;;;;14.30;8.30;;;9.80;81.70;;;;;;4904189;29;20044;-83
2021/11/10 11:25:17;;;;;;;14.67;8.80;;;10.00;81.00;;;;;;4902583;29;20412;-83
2021/11/10 11:28:01;;;;;;;14.37;8.83;;;10.10;79.00;;;;;;4902495;29;20709;-84
2021/11/10 11:30:33;;;;;;;14.80;8.03;;;10.10;78.90;;;;;;4903439;29;20037;-84
2021/11/10 11:33:01;;;;;;;13.80;8.73;;;9.90;77.80;;;;;;4903947;29;20037;-83
2021/11/10 11:35:33;;;;;;;16.47;9.50;;;9.80;77.70;;;;;;4905884;29;20043;-84
2021/11/10 11:38:03;;;;;;;16.37;9.03;;;9.60;78.60;;;;;;4905737;29;20037;-83
2021/11/10 11:40:32;;;;;;;15.57;9.80;;;9.70;78.90;;;;;;4904793;29;20124;-84
2021/11/10 11:42:59;;;;;;;17.80;9.50;;;9.60;77.80;;;;;;4904765;29;20100;-83
2021/11/10 11:45:27;;;;;;;17.03;10.20;;;9.60;79.50;;;;;;4935493;29;20194;-81
2021/11/10 11:47:54;;;;;;;13.10;8.80;;;9.80;79.70;;;;;;4903218;29;20048;-82
2021/11/10 11:50:21;;;;;;;14.87;9.47;;;9.80;78.80;;;;;;4902101;29;20043;-84
2021/11/10 11:52:50;;;;;;;15.43;9.43;;;10.10;79.80;;;;;;4933976;29;20037;-82
2021/11/10 11:55:31;;;;;;;11.63;8.83;;;10.30;79.80;;;;;;4904292;29;20037;-84
2021/11/10 11:58:03;;;;;;;14.27;8.93;;;10.60;80.00;;;;;;4904316;29;20032;-83
2021/11/10 12:00:42;;;;;;;12.83;8.60;;;10.70;77.10;;;;;;4903116;29;20108;-83
2021/11/10 12:03:29;;;;;;;14.97;10.03;;;10.60;77.30;;;;;;4904032;29;20348;-82
2021/11/10 12:06:17;;;;;;;18.73;10.07;;;10.60;77.50;;;;;;4914245;29;20140;-80
2021/11/10 12:08:46;;;;;;;13.00;8.70;;;10.80;76.70;;;;;;4915528;29;20131;-84
2021/11/10 12:11:23;;;;;;;14.83;9.07;;;10.80;77.60;;;;;;4915993;29;20063;-83
2021/11/10 12:14:07;;;;;;;15.80;9.10;;;11.00;76.50;;;;;;4909418;29;20044;-82
2021/11/10 12:16:45;;;;;;;14.67;9.27;;;11.00;76.30;;;;;;4902755;29;20040;-83
2021/11/10 12:19:23;;;;;;;14.10;9.00;;;11.10;76.20;;;;;;4902163;29;20037;-83
2021/11/10 12:22:02;;;;;;;16.27;9.37;;;10.90;75.20;;;;;;4934437;29;20037;-83
2021/11/10 12:24:41;;;;;;;14.10;8.70;;;11.00;77.10;;;;;;4902994;29;20033;-85
2021/11/10 12:27:13;;;;;;;18.23;9.63;;;11.10;77.00;;;;;;4905145;29;20036;-82
2021/11/10 12:29:45;;;;;;;17.53;9.90;;;11.20;75.80;;;;;;4904575;29;20482;-82
2021/11/10 12:32:13;;;;;;;14.93;8.77;;;11.10;75.90;;;;;;4903724;29;20462;-84
2021/11/10 12:34:40;;;;;;;11.80;8.60;;;11.00;76.60;;;;;;4918073;29;20103;-84
2021/11/10 12:37:09;;;;;;;15.40;8.80;;;11.10;77.40;;;;;;4902129;29;20037;-83
2021/11/10 12:39:42;;;;;;;15.40;8.90;;;11.10;76.70;;;;;;4901474;29;20047;-82
2021/11/10 12:42:09;;;;;;;;;;;11.20;77.20;;;;;;4902737;29;20044;-83
2021/11/10 12:44:45;;;;;;;16.27;9.43;;;11.30;77.30;;;;;;4901858;29;20002;-80